Pagrindinis puslapis
METAR-TAF:

METAR-TAF

Oro uostai :

Kota Bharu, Malaizija

platuma: 06-10N, ilguma: 102-17E, Aukštis: 5 m

Dabartinis oras

Ataskaita buvo paskelbta 52 minutes, ne 21:00 UTC
Vėjas 1 kt nuo kintamojo kryptimis
Temperatūra 25°C
Drėgmė 94%
Slėgis 1011 hPa
Matomumas 10 km arba daugiau
Mažai debesys ne aukštis 2000 ft

METAR: WMKC 122100Z VRB01KT 9999 FEW020 25/24 Q1011

Laikas: 05:52 (21:52 UTC)

Prognozė

Ataskaita buvo paskelbta 4 valandos ir 52 minutes, ne 17:00 UTC
Prognozė galioja nuo 12 metu 18 UTC su 13 metu 18 UTC
Vėjas 3 kt nuo kintamojo kryptimis
Matomumas 10 km arba daugiau
Mažai debesys ne aukštis 2000 ft
Tapsmas
nuo 13 metu 04 UTC su 13 metu 06 UTC
Vėjas 8 kt iš Rytų
Mažai debesys ne aukštis 1700 ft, Liūtiniai kamuoliniai debesys.
Tapsmas
nuo 13 metu 11 UTC su 13 metu 12 UTC
Vėjas 3 kt nuo kintamojo kryptimis
Mažai debesys ne aukštis 2000 ft

TAF: WMKC 121700Z 1218/1318 VRB03KT 9999 FEW020 BECMG 1304/1306 09008KT FEW017CB BECMG 1311/1312 VRB03KT FEW020

Orai ataskaitas ir orų prognozės (METAR, TAF).

turimą stotys yra geltonos ir raudonos taškus žemėlapyje.

Perkelti pele per norėdami pamatyti stoties vardą.

Tada spustelėkite, norėdami matyti oro stebėjimo ir prognozės.

Norėdami pakeisti žemėlapį: spustelėkite ant žalios mygtukų su juodo kryžiaus žemyn,; žalią mygtuką su brūkšneliu, jei norite nutolinti; arba žalių rodyklių gretimoms žemėlapius.


METAR-TAF: